Collista, Kentucky
Current Conditions -  °F | °C
As of 1:15 PM on Monday 22 Dec 2014 (Local Time) from KSJS Reporting Station
Broken Clouds Broken Clouds  
Wind Chill: 55°   Ceiling: 5000
Heat Index: 55°   Visibility: 10mi
Dew Point: 40°   Wind: 5mph
Humidity: 57%   Direction: 130°SE
Pressure: 29.92"   Gusts: NA
Location:  37.7639°N, 82.7875°W
Report Text: KSJS 221815Z AUTO 13004KT 10SM BKN050 13/05 A2992 RMK AO2 T01290046
Loading
Personal Weather Stations






























Interactive Weather Map New forecast layout! Learn more

10-Day Weather Forecast

Advertisements
Track Severe Weather on mobile